sensor_id;sensor_type;location;lat;lon;timestamp;temperature;humidity
7942;HTU21D;4016;50.758;7.150;2024-02-26T00:01:43;7.29;118.99
7942;HTU21D;4016;50.758;7.150;2024-02-26T00:06:44;7.15;118.99
7942;HTU21D;4016;50.758;7.150;2024-02-26T00:11:44;7.19;118.99
7942;HTU21D;4016;50.758;7.150;2024-02-26T00:16:45;7.10;118.99
7942;HTU21D;4016;50.758;7.150;2024-02-26T00:21:45;7.24;118.99
7942;HTU21D;4016;50.758;7.150;2024-02-26T00:26:45;7.12;118.99
7942;HTU21D;4016;50.758;7.150;2024-02-26T00:31:46;7.09;118.99
7942;HTU21D;4016;50.758;7.150;2024-02-26T00:36:46;7.01;118.99
7942;HTU21D;4016;50.758;7.150;2024-02-26T00:41:47;7.00;118.99
7942;HTU21D;4016;50.758;7.150;2024-02-26T00:46:47;6.96;118.99
7942;HTU21D;4016;50.758;7.150;2024-02-26T00:51:47;6.81;118.99
7942;HTU21D;4016;50.758;7.150;2024-02-26T00:56:48;6.80;118.99
7942;HTU21D;4016;50.758;7.150;2024-02-26T01:01:48;6.81;118.99
7942;HTU21D;4016;50.758;7.150;2024-02-26T01:06:48;6.83;118.99
7942;HTU21D;4016;50.758;7.150;2024-02-26T01:11:49;6.73;118.99
7942;HTU21D;4016;50.758;7.150;2024-02-26T01:16:49;6.82;118.99
7942;HTU21D;4016;50.758;7.150;2024-02-26T01:21:49;6.78;118.99
7942;HTU21D;4016;50.758;7.150;2024-02-26T01:26:50;6.87;118.99
7942;HTU21D;4016;50.758;7.150;2024-02-26T01:31:50;6.72;118.99
7942;HTU21D;4016;50.758;7.150;2024-02-26T01:36:51;6.85;118.99
7942;HTU21D;4016;50.758;7.150;2024-02-26T01:41:51;6.88;118.99
7942;HTU21D;4016;50.758;7.150;2024-02-26T01:46:51;6.88;118.99
7942;HTU21D;4016;50.758;7.150;2024-02-26T01:51:53;6.80;118.99
7942;HTU21D;4016;50.758;7.150;2024-02-26T01:56:54;6.86;118.99
7942;HTU21D;4016;50.758;7.150;2024-02-26T02:01:56;6.69;118.99
7942;HTU21D;4016;50.758;7.150;2024-02-26T02:06:58;6.91;118.99
7942;HTU21D;4016;50.758;7.150;2024-02-26T02:12:00;6.90;118.99
7942;HTU21D;4016;50.758;7.150;2024-02-26T02:17:00;6.90;118.99
7942;HTU21D;4016;50.758;7.150;2024-02-26T02:22:01;6.96;118.99
7942;HTU21D;4016;50.758;7.150;2024-02-26T02:27:01;6.69;118.99
7942;HTU21D;4016;50.758;7.150;2024-02-26T02:32:03;6.81;118.99
7942;HTU21D;4016;50.758;7.150;2024-02-26T02:37:03;6.81;118.99
7942;HTU21D;4016;50.758;7.150;2024-02-26T02:42:04;6.81;118.99
7942;HTU21D;4016;50.758;7.150;2024-02-26T02:47:05;6.81;118.99
7942;HTU21D;4016;50.758;7.150;2024-02-26T02:52:05;6.80;118.99
7942;HTU21D;4016;50.758;7.150;2024-02-26T02:57:06;6.73;118.99
7942;HTU21D;4016;50.758;7.150;2024-02-26T03:02:06;6.72;118.99
7942;HTU21D;4016;50.758;7.150;2024-02-26T03:07:07;6.74;118.99
7942;HTU21D;4016;50.758;7.150;2024-02-26T03:12:07;6.58;118.99
7942;HTU21D;4016;50.758;7.150;2024-02-26T03:17:07;6.66;118.99
7942;HTU21D;4016;50.758;7.150;2024-02-26T03:22:08;6.71;118.99
7942;HTU21D;4016;50.758;7.150;2024-02-26T03:27:08;6.48;118.99
7942;HTU21D;4016;50.758;7.150;2024-02-26T03:32:09;6.49;118.99
7942;HTU21D;4016;50.758;7.150;2024-02-26T03:37:10;6.50;118.99
7942;HTU21D;4016;50.758;7.150;2024-02-26T03:42:11;6.48;118.99
7942;HTU21D;4016;50.758;7.150;2024-02-26T03:47:11;6.48;118.99
7942;HTU21D;4016;50.758;7.150;2024-02-26T03:52:11;6.41;118.99
7942;HTU21D;4016;50.758;7.150;2024-02-26T03:57:12;6.41;118.99
7942;HTU21D;4016;50.758;7.150;2024-02-26T04:02:12;6.46;118.99
7942;HTU21D;4016;50.758;7.150;2024-02-26T04:07:12;6.52;118.99
7942;HTU21D;4016;50.758;7.150;2024-02-26T04:12:13;6.58;118.99
7942;HTU21D;4016;50.758;7.150;2024-02-26T04:17:14;6.42;118.99
7942;HTU21D;4016;50.758;7.150;2024-02-26T04:22:14;6.44;118.99
7942;HTU21D;4016;50.758;7.150;2024-02-26T04:27:15;6.39;118.99
7942;HTU21D;4016;50.758;7.150;2024-02-26T04:32:15;6.37;118.99
7942;HTU21D;4016;50.758;7.150;2024-02-26T04:37:16;6.26;118.99
7942;HTU21D;4016;50.758;7.150;2024-02-26T04:42:16;6.14;118.99
7942;HTU21D;4016;50.758;7.150;2024-02-26T04:47:16;6.28;118.99
7942;HTU21D;4016;50.758;7.150;2024-02-26T04:52:17;6.27;118.99
7942;HTU21D;4016;50.758;7.150;2024-02-26T04:57:17;6.19;118.99
7942;HTU21D;4016;50.758;7.150;2024-02-26T05:02:18;6.30;118.99
7942;HTU21D;4016;50.758;7.150;2024-02-26T05:07:18;6.24;118.99
7942;HTU21D;4016;50.758;7.150;2024-02-26T05:12:19;6.11;118.99
7942;HTU21D;4016;50.758;7.150;2024-02-26T05:17:19;6.22;118.99
7942;HTU21D;4016;50.758;7.150;2024-02-26T05:22:20;6.25;118.99
7942;HTU21D;4016;50.758;7.150;2024-02-26T05:27:20;6.36;118.99
7942;HTU21D;4016;50.758;7.150;2024-02-26T05:32:21;6.44;118.99
7942;HTU21D;4016;50.758;7.150;2024-02-26T05:37:21;6.31;118.99
7942;HTU21D;4016;50.758;7.150;2024-02-26T05:42:21;6.27;118.99
7942;HTU21D;4016;50.758;7.150;2024-02-26T05:47:22;6.08;118.99
7942;HTU21D;4016;50.758;7.150;2024-02-26T05:52:22;5.99;118.99
7942;HTU21D;4016;50.758;7.150;2024-02-26T05:57:22;6.08;118.99
7942;HTU21D;4016;50.758;7.150;2024-02-26T06:02:23;6.09;118.99
7942;HTU21D;4016;50.758;7.150;2024-02-26T06:07:23;6.05;118.99
7942;HTU21D;4016;50.758;7.150;2024-02-26T06:12:24;6.13;118.99
7942;HTU21D;4016;50.758;7.150;2024-02-26T06:17:24;6.31;118.99
7942;HTU21D;4016;50.758;7.150;2024-02-26T06:22:25;6.25;118.99
7942;HTU21D;4016;50.758;7.150;2024-02-26T06:27:26;6.22;118.99
7942;HTU21D;4016;50.758;7.150;2024-02-26T06:32:26;6.15;118.99
7942;HTU21D;4016;50.758;7.150;2024-02-26T06:37:28;6.36;118.99
7942;HTU21D;4016;50.758;7.150;2024-02-26T06:42:29;6.22;118.99
7942;HTU21D;4016;50.758;7.150;2024-02-26T06:47:30;6.27;118.99
7942;HTU21D;4016;50.758;7.150;2024-02-26T06:52:30;6.14;118.99
7942;HTU21D;4016;50.758;7.150;2024-02-26T06:57:31;6.11;118.99
7942;HTU21D;4016;50.758;7.150;2024-02-26T07:02:31;6.17;118.99
7942;HTU21D;4016;50.758;7.150;2024-02-26T07:07:32;6.15;118.99
7942;HTU21D;4016;50.758;7.150;2024-02-26T07:12:32;6.09;118.99
7942;HTU21D;4016;50.758;7.150;2024-02-26T07:17:33;6.15;118.99
7942;HTU21D;4016;50.758;7.150;2024-02-26T07:22:34;6.23;118.99
7942;HTU21D;4016;50.758;7.150;2024-02-26T07:27:35;6.12;118.99
7942;HTU21D;4016;50.758;7.150;2024-02-26T07:32:35;6.12;118.99
7942;HTU21D;4016;50.758;7.150;2024-02-26T07:37:36;6.08;118.99
7942;HTU21D;4016;50.758;7.150;2024-02-26T07:42:36;6.11;118.99
7942;HTU21D;4016;50.758;7.150;2024-02-26T07:47:37;6.19;118.99
7942;HTU21D;4016;50.758;7.150;2024-02-26T07:52:40;6.16;118.99
7942;HTU21D;4016;50.758;7.150;2024-02-26T07:57:44;6.10;118.99
7942;HTU21D;4016;50.758;7.150;2024-02-26T08:02:44;6.21;118.99
7942;HTU21D;4016;50.758;7.150;2024-02-26T08:07:45;6.20;118.99
7942;HTU21D;4016;50.758;7.150;2024-02-26T08:12:45;6.17;118.99
7942;HTU21D;4016;50.758;7.150;2024-02-26T08:17:45;6.20;118.99
7942;HTU21D;4016;50.758;7.150;2024-02-26T08:22:47;6.24;118.99
7942;HTU21D;4016;50.758;7.150;2024-02-26T08:27:48;6.19;118.99
7942;HTU21D;4016;50.758;7.150;2024-02-26T08:32:48;6.14;118.99
7942;HTU21D;4016;50.758;7.150;2024-02-26T08:37:49;6.12;118.99
7942;HTU21D;4016;50.758;7.150;2024-02-26T08:42:49;6.11;118.99
7942;HTU21D;4016;50.758;7.150;2024-02-26T08:49:46;6.05;118.99
7942;HTU21D;4016;50.758;7.150;2024-02-26T08:54:47;6.13;118.99
7942;HTU21D;4016;50.758;7.150;2024-02-26T08:59:47;6.05;118.99
7942;HTU21D;4016;50.758;7.150;2024-02-26T09:04:48;6.25;118.99
7942;HTU21D;4016;50.758;7.150;2024-02-26T09:09:48;6.08;118.99
7942;HTU21D;4016;50.758;7.150;2024-02-26T09:14:48;6.08;118.99
7942;HTU21D;4016;50.758;7.150;2024-02-26T09:19:49;6.23;118.99
7942;HTU21D;4016;50.758;7.150;2024-02-26T09:24:49;6.15;118.99
7942;HTU21D;4016;50.758;7.150;2024-02-26T09:29:51;6.30;118.99
7942;HTU21D;4016;50.758;7.150;2024-02-26T09:34:51;6.37;118.99
7942;HTU21D;4016;50.758;7.150;2024-02-26T09:39:52;6.37;118.99
7942;HTU21D;4016;50.758;7.150;2024-02-26T09:44:55;6.26;118.99
7942;HTU21D;4016;50.758;7.150;2024-02-26T09:49:59;6.48;118.99
7942;HTU21D;4016;50.758;7.150;2024-02-26T09:55:00;6.49;118.99
7942;HTU21D;4016;50.758;7.150;2024-02-26T10:00:03;6.55;118.99
7942;HTU21D;4016;50.758;7.150;2024-02-26T10:05:07;6.60;118.99
7942;HTU21D;4016;50.758;7.150;2024-02-26T10:10:10;6.68;118.99
7942;HTU21D;4016;50.758;7.150;2024-02-26T10:15:10;6.79;118.99
7942;HTU21D;4016;50.758;7.150;2024-02-26T10:20:15;6.76;118.99
7942;HTU21D;4016;50.758;7.150;2024-02-26T10:25:17;7.05;118.99
7942;HTU21D;4016;50.758;7.150;2024-02-26T10:30:20;7.27;118.99
7942;HTU21D;4016;50.758;7.150;2024-02-26T10:35:21;7.42;118.99
7942;HTU21D;4016;50.758;7.150;2024-02-26T10:40:21;7.52;118.99
7942;HTU21D;4016;50.758;7.150;2024-02-26T10:45:22;7.43;118.99
7942;HTU21D;4016;50.758;7.150;2024-02-26T10:50:22;7.50;118.99
7942;HTU21D;4016;50.758;7.150;2024-02-26T10:55:23;7.54;118.99
7942;HTU21D;4016;50.758;7.150;2024-02-26T11:00:23;7.53;118.99
7942;HTU21D;4016;50.758;7.150;2024-02-26T11:05:25;7.54;118.99
7942;HTU21D;4016;50.758;7.150;2024-02-26T11:10:26;7.62;118.99
7942;HTU21D;4016;50.758;7.150;2024-02-26T11:15:28;7.72;118.99
7942;HTU21D;4016;50.758;7.150;2024-02-26T11:20:30;7.60;118.99
7942;HTU21D;4016;50.758;7.150;2024-02-26T11:25:31;7.56;118.99
7942;HTU21D;4016;50.758;7.150;2024-02-26T11:30:33;7.59;118.99
7942;HTU21D;4016;50.758;7.150;2024-02-26T11:35:38;7.77;118.99
7942;HTU21D;4016;50.758;7.150;2024-02-26T11:40:39;7.74;118.99
7942;HTU21D;4016;50.758;7.150;2024-02-26T11:50:46;7.79;118.99
7942;HTU21D;4016;50.758;7.150;2024-02-26T11:55:47;7.77;118.99
7942;HTU21D;4016;50.758;7.150;2024-02-26T12:00:48;7.94;118.99
7942;HTU21D;4016;50.758;7.150;2024-02-26T12:05:49;7.88;118.99
7942;HTU21D;4016;50.758;7.150;2024-02-26T12:10:50;7.97;118.99
7942;HTU21D;4016;50.758;7.150;2024-02-26T12:21:00;8.04;118.99
7942;HTU21D;4016;50.758;7.150;2024-02-26T12:26:01;8.14;118.99
7942;HTU21D;4016;50.758;7.150;2024-02-26T12:31:04;8.09;118.99
7942;HTU21D;4016;50.758;7.150;2024-02-26T12:36:04;8.05;118.99
7942;HTU21D;4016;50.758;7.150;2024-02-26T12:41:06;8.20;118.99
7942;HTU21D;4016;50.758;7.150;2024-02-26T12:46:06;8.08;118.99
7942;HTU21D;4016;50.758;7.150;2024-02-26T12:51:07;8.14;118.99
7942;HTU21D;4016;50.758;7.150;2024-02-26T12:56:09;8.24;118.99
7942;HTU21D;4016;50.758;7.150;2024-02-26T13:01:15;8.31;118.99
7942;HTU21D;4016;50.758;7.150;2024-02-26T13:06:18;8.28;118.99
7942;HTU21D;4016;50.758;7.150;2024-02-26T13:11:18;8.16;118.99
7942;HTU21D;4016;50.758;7.150;2024-02-26T13:16:19;8.29;118.99
7942;HTU21D;4016;50.758;7.150;2024-02-26T13:21:19;8.38;118.99
7942;HTU21D;4016;50.758;7.150;2024-02-26T13:26:22;8.24;118.99
7942;HTU21D;4016;50.758;7.150;2024-02-26T13:31:24;8.18;118.99
7942;HTU21D;4016;50.758;7.150;2024-02-26T13:36:24;8.32;118.99
7942;HTU21D;4016;50.758;7.150;2024-02-26T13:41:25;8.21;118.99
7942;HTU21D;4016;50.758;7.150;2024-02-26T13:46:26;8.44;118.99
7942;HTU21D;4016;50.758;7.150;2024-02-26T13:51:26;8.35;118.99
7942;HTU21D;4016;50.758;7.150;2024-02-26T13:56:27;8.34;118.99
7942;HTU21D;4016;50.758;7.150;2024-02-26T14:01:27;8.37;118.99
7942;HTU21D;4016;50.758;7.150;2024-02-26T14:06:28;8.38;118.99
7942;HTU21D;4016;50.758;7.150;2024-02-26T14:11:29;8.45;118.99
7942;HTU21D;4016;50.758;7.150;2024-02-26T14:16:29;8.32;118.99
7942;HTU21D;4016;50.758;7.150;2024-02-26T14:21:29;8.20;118.99
7942;HTU21D;4016;50.758;7.150;2024-02-26T14:26:30;8.13;118.99
7942;HTU21D;4016;50.758;7.150;2024-02-26T14:31:30;8.32;118.99
7942;HTU21D;4016;50.758;7.150;2024-02-26T14:36:31;8.35;118.99
7942;HTU21D;4016;50.758;7.150;2024-02-26T14:41:31;8.22;118.99
7942;HTU21D;4016;50.758;7.150;2024-02-26T14:46:32;8.22;118.99
7942;HTU21D;4016;50.758;7.150;2024-02-26T14:51:32;8.50;118.99
7942;HTU21D;4016;50.758;7.150;2024-02-26T14:56:33;8.46;118.99
7942;HTU21D;4016;50.758;7.150;2024-02-26T15:01:33;8.60;118.99
7942;HTU21D;4016;50.758;7.150;2024-02-26T15:06:33;8.38;118.99
7942;HTU21D;4016;50.758;7.150;2024-02-26T15:11:38;8.41;118.99
7942;HTU21D;4016;50.758;7.150;2024-02-26T15:16:39;8.46;118.99
7942;HTU21D;4016;50.758;7.150;2024-02-26T15:21:44;8.52;118.99
7942;HTU21D;4016;50.758;7.150;2024-02-26T15:26:45;8.56;118.99
7942;HTU21D;4016;50.758;7.150;2024-02-26T15:31:46;8.67;118.99
7942;HTU21D;4016;50.758;7.150;2024-02-26T15:36:46;8.64;118.99
7942;HTU21D;4016;50.758;7.150;2024-02-26T15:41:46;8.66;118.99
7942;HTU21D;4016;50.758;7.150;2024-02-26T15:46:47;8.52;118.99
7942;HTU21D;4016;50.758;7.150;2024-02-26T15:51:47;8.55;118.99
7942;HTU21D;4016;50.758;7.150;2024-02-26T15:56:47;8.59;118.99
7942;HTU21D;4016;50.758;7.150;2024-02-26T16:01:48;8.66;118.99
7942;HTU21D;4016;50.758;7.150;2024-02-26T16:06:52;8.44;118.99
7942;HTU21D;4016;50.758;7.150;2024-02-26T16:11:56;8.51;118.99
7942;HTU21D;4016;50.758;7.150;2024-02-26T16:17:15;8.48;118.99
7942;HTU21D;4016;50.758;7.150;2024-02-26T16:22:16;8.38;118.99
7942;HTU21D;4016;50.758;7.150;2024-02-26T16:27:16;8.38;118.99
7942;HTU21D;4016;50.758;7.150;2024-02-26T16:32:17;8.33;118.99
7942;HTU21D;4016;50.758;7.150;2024-02-26T16:37:17;8.32;118.99
7942;HTU21D;4016;50.758;7.150;2024-02-26T16:42:18;8.35;118.99
7942;HTU21D;4016;50.758;7.150;2024-02-26T16:47:19;8.29;118.99
7942;HTU21D;4016;50.758;7.150;2024-02-26T16:52:19;8.26;118.99
7942;HTU21D;4016;50.758;7.150;2024-02-26T16:57:20;8.36;118.99
7942;HTU21D;4016;50.758;7.150;2024-02-26T17:02:21;8.33;118.99
7942;HTU21D;4016;50.758;7.150;2024-02-26T17:07:22;8.45;118.99
7942;HTU21D;4016;50.758;7.150;2024-02-26T17:12:22;8.29;118.99
7942;HTU21D;4016;50.758;7.150;2024-02-26T17:17:23;8.22;118.99
7942;HTU21D;4016;50.758;7.150;2024-02-26T17:22:23;8.22;118.99
7942;HTU21D;4016;50.758;7.150;2024-02-26T17:27:25;8.32;118.99
7942;HTU21D;4016;50.758;7.150;2024-02-26T17:32:26;8.42;118.99
7942;HTU21D;4016;50.758;7.150;2024-02-26T17:37:26;8.26;118.99
7942;HTU21D;4016;50.758;7.150;2024-02-26T17:42:26;8.01;118.99
7942;HTU21D;4016;50.758;7.150;2024-02-26T17:47:27;8.38;118.99
7942;HTU21D;4016;50.758;7.150;2024-02-26T17:52:27;8.26;118.99
7942;HTU21D;4016;50.758;7.150;2024-02-26T17:57:28;8.12;118.99
7942;HTU21D;4016;50.758;7.150;2024-02-26T18:02:28;8.07;118.99
7942;HTU21D;4016;50.758;7.150;2024-02-26T18:07:29;8.06;118.99
7942;HTU21D;4016;50.758;7.150;2024-02-26T18:12:29;8.08;118.99
7942;HTU21D;4016;50.758;7.150;2024-02-26T18:17:30;7.89;118.99
7942;HTU21D;4016;50.758;7.150;2024-02-26T18:22:31;7.90;118.99
7942;HTU21D;4016;50.758;7.150;2024-02-26T18:27:31;7.79;118.99
7942;HTU21D;4016;50.758;7.150;2024-02-26T18:32:34;7.85;118.99
7942;HTU21D;4016;50.758;7.150;2024-02-26T18:37:35;8.08;118.99
7942;HTU21D;4016;50.758;7.150;2024-02-26T18:42:35;7.92;118.99
7942;HTU21D;4016;50.758;7.150;2024-02-26T18:47:38;7.98;118.99
7942;HTU21D;4016;50.758;7.150;2024-02-26T18:52:38;7.92;118.99
7942;HTU21D;4016;50.758;7.150;2024-02-26T18:57:39;8.04;118.99
7942;HTU21D;4016;50.758;7.150;2024-02-26T19:02:41;7.81;118.99
7942;HTU21D;4016;50.758;7.150;2024-02-26T19:07:41;7.82;118.99
7942;HTU21D;4016;50.758;7.150;2024-02-26T19:12:42;7.81;118.99
7942;HTU21D;4016;50.758;7.150;2024-02-26T19:17:44;7.78;118.99
7942;HTU21D;4016;50.758;7.150;2024-02-26T19:22:48;7.76;118.99
7942;HTU21D;4016;50.758;7.150;2024-02-26T19:27:49;7.79;118.99
7942;HTU21D;4016;50.758;7.150;2024-02-26T19:32:49;7.69;118.99
7942;HTU21D;4016;50.758;7.150;2024-02-26T19:37:50;7.55;118.99
7942;HTU21D;4016;50.758;7.150;2024-02-26T19:42:51;7.54;118.99
7942;HTU21D;4016;50.758;7.150;2024-02-26T19:47:51;7.53;118.99
7942;HTU21D;4016;50.758;7.150;2024-02-26T19:52:52;7.60;118.99
7942;HTU21D;4016;50.758;7.150;2024-02-26T19:57:53;7.68;118.99
7942;HTU21D;4016;50.758;7.150;2024-02-26T20:02:54;7.68;118.99
7942;HTU21D;4016;50.758;7.150;2024-02-26T20:07:54;7.55;118.99
7942;HTU21D;4016;50.758;7.150;2024-02-26T20:12:55;7.58;118.99
7942;HTU21D;4016;50.758;7.150;2024-02-26T20:18:00;7.57;118.99
7942;HTU21D;4016;50.758;7.150;2024-02-26T20:23:00;7.56;118.99
7942;HTU21D;4016;50.758;7.150;2024-02-26T20:28:00;7.65;118.99
7942;HTU21D;4016;50.758;7.150;2024-02-26T20:33:01;7.74;118.99
7942;HTU21D;4016;50.758;7.150;2024-02-26T20:38:01;7.63;118.99
7942;HTU21D;4016;50.758;7.150;2024-02-26T20:43:02;7.61;118.99
7942;HTU21D;4016;50.758;7.150;2024-02-26T20:48:02;7.86;118.99
7942;HTU21D;4016;50.758;7.150;2024-02-26T20:53:03;7.81;118.99
7942;HTU21D;4016;50.758;7.150;2024-02-26T20:58:03;7.52;118.99
7942;HTU21D;4016;50.758;7.150;2024-02-26T21:03:04;7.54;118.99
7942;HTU21D;4016;50.758;7.150;2024-02-26T21:08:09;7.77;118.99
7942;HTU21D;4016;50.758;7.150;2024-02-26T21:13:10;7.90;118.99
7942;HTU21D;4016;50.758;7.150;2024-02-26T21:18:10;7.59;118.99
7942;HTU21D;4016;50.758;7.150;2024-02-26T21:23:10;7.48;118.99
7942;HTU21D;4016;50.758;7.150;2024-02-26T21:28:12;7.47;118.99
7942;HTU21D;4016;50.758;7.150;2024-02-26T21:33:13;7.43;118.99
7942;HTU21D;4016;50.758;7.150;2024-02-26T21:38:13;7.49;118.99
7942;HTU21D;4016;50.758;7.150;2024-02-26T21:43:13;7.55;118.99
7942;HTU21D;4016;50.758;7.150;2024-02-26T21:48:14;7.53;118.99
7942;HTU21D;4016;50.758;7.150;2024-02-26T21:53:14;7.68;118.99
7942;HTU21D;4016;50.758;7.150;2024-02-26T21:58:15;7.45;118.99
7942;HTU21D;4016;50.758;7.150;2024-02-26T22:03:15;7.52;118.99
7942;HTU21D;4016;50.758;7.150;2024-02-26T22:08:16;7.34;118.99
7942;HTU21D;4016;50.758;7.150;2024-02-26T22:13:16;7.35;118.99
7942;HTU21D;4016;50.758;7.150;2024-02-26T22:18:17;7.39;118.99
7942;HTU21D;4016;50.758;7.150;2024-02-26T22:23:17;7.30;118.99
7942;HTU21D;4016;50.758;7.150;2024-02-26T22:28:17;7.35;118.99
7942;HTU21D;4016;50.758;7.150;2024-02-26T22:33:18;7.31;118.99
7942;HTU21D;4016;50.758;7.150;2024-02-26T22:38:18;7.49;118.99
7942;HTU21D;4016;50.758;7.150;2024-02-26T22:43:20;7.22;118.99
7942;HTU21D;4016;50.758;7.150;2024-02-26T22:48:21;7.28;118.99
7942;HTU21D;4016;50.758;7.150;2024-02-26T22:53:22;7.27;118.99
7942;HTU21D;4016;50.758;7.150;2024-02-26T22:58:22;7.16;118.99
7942;HTU21D;4016;50.758;7.150;2024-02-26T23:03:23;7.35;118.99
7942;HTU21D;4016;50.758;7.150;2024-02-26T23:08:23;7.38;118.99
7942;HTU21D;4016;50.758;7.150;2024-02-26T23:13:23;7.13;118.99
7942;HTU21D;4016;50.758;7.150;2024-02-26T23:18:24;7.25;118.99
7942;HTU21D;4016;50.758;7.150;2024-02-26T23:23:24;7.22;118.99
7942;HTU21D;4016;50.758;7.150;2024-02-26T23:28:24;7.17;118.99
7942;HTU21D;4016;50.758;7.150;2024-02-26T23:33:25;7.12;118.99
7942;HTU21D;4016;50.758;7.150;2024-02-26T23:38:25;7.12;118.99
7942;HTU21D;4016;50.758;7.150;2024-02-26T23:43:25;7.08;118.99
7942;HTU21D;4016;50.758;7.150;2024-02-26T23:48:26;7.07;118.99
7942;HTU21D;4016;50.758;7.150;2024-02-26T23:53:26;7.13;118.99
7942;HTU21D;4016;50.758;7.150;2024-02-26T23:58:26;7.15;118.99
